createdAt,value
2022-08-22T00:00:58.391Z,97873.13
2022-08-22T00:02:58.277Z,97874.31
2022-08-22T00:03:11.262Z,97877.19
2022-08-22T00:03:35.387Z,97862.63
2022-08-22T00:06:12.188Z,97872.94
2022-08-22T00:08:50.046Z,97871.41
2022-08-22T00:11:25.731Z,97865.34
2022-08-22T00:14:01.212Z,97873.22
2022-08-22T00:16:36.234Z,97875.03
2022-08-22T00:19:10.056Z,97868.97
2022-08-22T00:21:43.679Z,97871.09
2022-08-22T00:24:18.668Z,97867.75
2022-08-22T00:26:53.088Z,97871.69
2022-08-22T00:29:25.599Z,97868.78
2022-08-22T00:32:01.799Z,97862.22
2022-08-22T00:34:34.425Z,97864.25
2022-08-22T00:37:06.452Z,97864.84
2022-08-22T00:39:38.079Z,97872.22
2022-08-22T00:42:30.300Z,97868.19
2022-08-22T00:45:32.283Z,97874.44
2022-08-22T00:48:14.546Z,97873.72
2022-08-22T00:51:04.309Z,97877.06
2022-08-22T00:53:41.779Z,97865.06
2022-08-22T00:56:33.292Z,97866.97
2022-08-22T00:59:23.973Z,97868.28
2022-08-22T01:01:58.950Z,97867.16
2022-08-22T01:04:36.010Z,97863.44
2022-08-22T01:07:14.653Z,97861.53
2022-08-22T01:09:50.643Z,97861.53
2022-08-22T01:12:34.534Z,97860.41
2022-08-22T01:15:05.331Z,97858.28
2022-08-22T01:17:50.862Z,97858.50
2022-08-22T01:21:14.802Z,97855.06
2022-08-22T01:24:13.289Z,97857.88
2022-08-22T01:27:16.936Z,97860.91
2022-08-22T01:30:32.350Z,97863.44
2022-08-22T01:33:24.232Z,97854.84
2022-08-22T01:36:09.191Z,97858.50
2022-08-22T01:39:04.525Z,97856.69
2022-08-22T01:42:01.202Z,97853.75
2022-08-22T01:44:39.725Z,97855.38
2022-08-22T01:47:12.344Z,97855.97
2022-08-22T01:49:44.148Z,97858.47
2022-08-22T01:52:18.248Z,97858.19
2022-08-22T01:54:50.876Z,97857.38
2022-08-22T01:57:19.804Z,97858.19
2022-08-22T01:59:50.366Z,97858.84
2022-08-22T02:02:37.135Z,97852.00
2022-08-22T02:05:10.732Z,97854.72
2022-08-22T02:07:47.546Z,97857.44
2022-08-22T02:10:21.108Z,97860.16
2022-08-22T02:12:56.344Z,97861.25
2022-08-22T02:15:28.967Z,97861.66
2022-08-22T02:18:12.356Z,97858.72
2022-08-22T02:20:44.754Z,97862.13
2022-08-22T02:23:22.009Z,97861.63
2022-08-22T02:26:04.960Z,97861.56
2022-08-22T02:28:40.489Z,97862.53
2022-08-22T02:31:34.079Z,97857.91
2022-08-22T02:34:04.962Z,97857.63
2022-08-22T02:36:35.887Z,97848.72
2022-08-22T02:39:09.689Z,97846.41
2022-08-22T02:41:47.035Z,97849.50
2022-08-22T02:44:19.090Z,97848.19
2022-08-22T02:46:53.032Z,97842.81
2022-08-22T02:49:27.390Z,97846.66
2022-08-22T02:52:00.166Z,97844.16
2022-08-22T02:54:38.785Z,97844.44
2022-08-22T02:57:14.317Z,97840.63
2022-08-22T03:00:01.580Z,97839.22
2022-08-22T03:02:35.920Z,97841.44
2022-08-22T03:05:20.400Z,97842.75
2022-08-22T03:07:51.918Z,97844.66
2022-08-22T03:10:24.119Z,97833.94
2022-08-22T03:12:59.305Z,97837.53
2022-08-22T03:15:32.549Z,97830.16
2022-08-22T03:18:05.404Z,97838.59
2022-08-22T03:20:44.615Z,97846.97
2022-08-22T03:23:17.919Z,97840.06
2022-08-22T03:25:53.031Z,97831.75
2022-08-22T03:28:23.599Z,97835.22
2022-08-22T03:31:00.078Z,97836.75
2022-08-22T03:33:30.113Z,97836.69
2022-08-22T03:36:06.485Z,97829.94
2022-08-22T03:38:49.153Z,97839.13
2022-08-22T03:41:59.233Z,97828.59
2022-08-22T03:44:56.389Z,97831.56
2022-08-22T03:47:59.991Z,97842.13
2022-08-22T03:50:41.691Z,97834.34
2022-08-22T03:53:33.886Z,97829.13
2022-08-22T03:56:26.914Z,97836.75
2022-08-22T03:59:12.186Z,97850.56
2022-08-22T04:02:03.864Z,97851.09
2022-08-22T04:05:24.081Z,97845.44
2022-08-22T04:08:21.083Z,97848.94
2022-08-22T04:11:23.412Z,97861.44
2022-08-22T04:14:04.665Z,97861.66
2022-08-22T04:17:07.967Z,97856.16
2022-08-22T04:20:01.601Z,97862.25
2022-08-22T04:22:54.688Z,97867.38
2022-08-22T04:25:25.534Z,97875.75
2022-08-22T04:27:57.052Z,97871.94
2022-08-22T04:30:28.688Z,97864.38
2022-08-22T04:33:00.031Z,97873.34
2022-08-22T04:35:32.768Z,97875.31
2022-08-22T04:38:04.101Z,97876.69
2022-08-22T04:40:35.678Z,97879.41
2022-08-22T04:43:13.217Z,97874.50
2022-08-22T04:45:44.766Z,97874.22
2022-08-22T04:48:17.501Z,97877.72
2022-08-22T04:50:50.401Z,97871.56
2022-08-22T04:53:43.776Z,97877.50
2022-08-22T04:56:16.769Z,97882.88
2022-08-22T04:58:47.856Z,97882.28
2022-08-22T05:01:18.604Z,97884.13
2022-08-22T05:03:54.813Z,97882.22
2022-08-22T05:06:27.214Z,97891.97
2022-08-22T05:08:55.605Z,97897.50
2022-08-22T05:11:24.310Z,97891.25
2022-08-22T05:13:54.696Z,97889.13
2022-08-22T05:16:26.180Z,97894.25
2022-08-22T05:18:56.425Z,97892.06
2022-08-22T05:21:28.116Z,97895.66
2022-08-22T05:24:00.099Z,97899.47
2022-08-22T05:26:28.776Z,97896.47
2022-08-22T05:28:59.222Z,97900.28
2022-08-22T05:31:30.032Z,97902.41
2022-08-22T05:34:03.622Z,97901.03
2022-08-22T05:36:36.285Z,97902.63
2022-08-22T05:39:08.375Z,97904.44
2022-08-22T05:41:38.734Z,97902.25
2022-08-22T05:44:08.780Z,97898.66
2022-08-22T05:46:43.252Z,97900.50
2022-08-22T05:49:19.149Z,97900.50
2022-08-22T05:52:00.009Z,97902.34
2022-08-22T05:54:34.540Z,97899.34
2022-08-22T05:57:10.003Z,97904.19
2022-08-22T05:59:41.711Z,97898.47
2022-08-22T06:02:13.419Z,97903.09
2022-08-22T06:04:47.744Z,97899.56
2022-08-22T06:07:22.154Z,97898.97
2022-08-22T06:10:21.776Z,97892.78
2022-08-22T06:12:59.617Z,97899.19
2022-08-22T06:15:31.846Z,97897.44
2022-08-22T06:18:03.392Z,97896.78
2022-08-22T06:20:40.169Z,97899.00
2022-08-22T06:23:09.582Z,97905.91
2022-08-22T06:25:40.516Z,97902.50
2022-08-22T06:28:10.016Z,97903.66
2022-08-22T06:30:39.595Z,97907.84
2022-08-22T06:33:12.352Z,97907.69
2022-08-22T06:36:00.714Z,97909.13
2022-08-22T06:38:33.502Z,97907.31
2022-08-22T06:41:05.171Z,97904.69
2022-08-22T06:43:38.461Z,97900.66
2022-08-22T06:46:07.508Z,97896.94
2022-08-22T06:48:37.262Z,97889.97
2022-08-22T06:51:08.319Z,97894.13
2022-08-22T06:54:18.817Z,97902.47
2022-08-22T06:56:49.408Z,97894.28
2022-08-22T06:59:19.333Z,97887.50
2022-08-22T07:01:52.149Z,97885.34
2022-08-22T07:04:23.946Z,97893.50
2022-08-22T07:06:52.449Z,97892.34
2022-08-22T07:09:25.682Z,97898.41
2022-08-22T07:11:55.084Z,97898.66
2022-08-22T07:14:30.287Z,97896.38
2022-08-22T07:16:59.986Z,97911.75
2022-08-22T07:19:30.440Z,97909.09
2022-08-22T07:22:00.909Z,97905.78
2022-08-22T07:24:32.520Z,97909.09
2022-08-22T07:27:08.983Z,97904.50
2022-08-22T07:29:44.237Z,97906.28
2022-08-22T07:32:16.165Z,97904.06
2022-08-22T07:34:54.385Z,97904.09
2022-08-22T07:37:30.761Z,97904.56
2022-08-22T07:40:05.224Z,97916.75
2022-08-22T07:42:39.694Z,97919.31
2022-08-22T07:45:10.901Z,97917.34
2022-08-22T07:47:49.745Z,97911.16
2022-08-22T07:50:21.912Z,97915.06
2022-08-22T07:52:51.000Z,97909.63
2022-08-22T07:55:23.223Z,97910.50
2022-08-22T07:57:54.944Z,97918.13
2022-08-22T08:00:23.721Z,97916.19
2022-08-22T08:02:54.112Z,97907.34
2022-08-22T08:05:23.975Z,97908.47
2022-08-22T08:07:53.573Z,97911.41
2022-08-22T08:10:25.328Z,97903.06
2022-08-22T08:13:02.034Z,97902.97
2022-08-22T08:15:32.786Z,97909.97
2022-08-22T08:18:03.863Z,97913.59
2022-08-22T08:20:32.137Z,97923.56
2022-08-22T08:23:00.630Z,97913.69
2022-08-22T08:25:32.101Z,97921.94
2022-08-22T08:28:18.304Z,97921.94
2022-08-22T08:30:48.218Z,97918.25
2022-08-22T08:33:25.948Z,97927.09
2022-08-22T08:36:02.746Z,97932.16
2022-08-22T08:38:34.490Z,97940.41
2022-08-22T08:41:29.589Z,97929.13
2022-08-22T08:44:03.370Z,97925.63
2022-08-22T08:47:02.419Z,97923.72
2022-08-22T08:50:14.867Z,97923.34
2022-08-22T08:53:00.973Z,97925.34
2022-08-22T08:55:39.140Z,97927.16
2022-08-22T08:58:21.417Z,97923.25
2022-08-22T09:00:57.115Z,97925.22
2022-08-22T09:03:52.290Z,97914.00
2022-08-22T09:06:42.383Z,97911.22
2022-08-22T09:09:25.900Z,97907.41
2022-08-22T09:12:12.478Z,97912.22
2022-08-22T09:14:55.773Z,97914.63
2022-08-22T09:17:47.602Z,97914.47
2022-08-22T09:20:37.707Z,97913.59
2022-08-22T09:23:37.668Z,97911.28
2022-08-22T09:26:11.112Z,97919.63
2022-08-22T09:28:41.744Z,97909.25
2022-08-22T09:31:47.913Z,97908.63
2022-08-22T09:34:25.698Z,97916.09
2022-08-22T09:37:14.191Z,97917.16
2022-08-22T09:39:52.259Z,97913.94
2022-08-22T09:42:22.855Z,97916.09
2022-08-22T09:45:00.783Z,97914.28
2022-08-22T09:47:33.767Z,97915.34
2022-08-22T09:50:12.312Z,97906.53
2022-08-22T09:52:57.767Z,97915.88
2022-08-22T09:55:40.445Z,97911.69
2022-08-22T09:58:17.478Z,97912.56
2022-08-22T10:00:54.582Z,97909.91
2022-08-22T10:03:34.065Z,97905.75
2022-08-22T10:06:09.107Z,97912.56
2022-08-22T10:08:46.039Z,97904.34
2022-08-22T10:11:26.863Z,97897.03
2022-08-22T10:14:01.508Z,97891.72
2022-08-22T10:16:51.319Z,97898.66
2022-08-22T10:19:26.201Z,97909.25
2022-08-22T10:22:19.234Z,97902.34
2022-08-22T10:24:51.596Z,97906.34
2022-08-22T10:27:22.667Z,97899.00
2022-08-22T10:30:03.493Z,97898.31
2022-08-22T10:32:35.419Z,97901.53
2022-08-22T10:35:15.334Z,97889.69
2022-08-22T10:37:59.501Z,97880.31
2022-08-22T10:40:31.985Z,97882.47
2022-08-22T10:43:09.590Z,97877.84
2022-08-22T10:45:41.799Z,97873.56
2022-08-22T10:48:34.521Z,97869.69
2022-08-22T10:51:34.196Z,97870.94
2022-08-22T10:54:20.834Z,97867.41
2022-08-22T10:56:53.244Z,97862.31
2022-08-22T10:59:30.951Z,97863.09
2022-08-22T11:02:11.281Z,97851.63
2022-08-22T11:04:53.226Z,97858.09
2022-08-22T11:07:48.941Z,97852.94
2022-08-22T11:10:27.306Z,97849.47
2022-08-22T11:13:06.997Z,97854.38
2022-08-22T11:16:04.421Z,97851.97
2022-08-22T11:18:51.493Z,97853.50
2022-08-22T11:21:41.666Z,97840.47
2022-08-22T11:24:53.907Z,97839.47
2022-08-22T11:27:39.539Z,97836.28
2022-08-22T11:30:10.769Z,97836.72
2022-08-22T11:33:11.018Z,97843.34
2022-08-22T11:35:44.249Z,97834.59
2022-08-22T11:38:20.366Z,97840.72
2022-08-22T11:40:59.169Z,97839.09
2022-08-22T11:43:41.389Z,97830.88
2022-08-22T11:46:26.651Z,97833.88
2022-08-22T11:49:15.696Z,97825.56
2022-08-22T11:52:06.635Z,97824.66
2022-08-22T11:55:18.165Z,97822.22
2022-08-22T11:57:49.156Z,97819.00
2022-08-22T12:00:26.587Z,97829.63
2022-08-22T12:03:23.562Z,97823.75
2022-08-22T12:05:53.324Z,97827.03
2022-08-22T12:08:46.262Z,97821.34
2022-08-22T12:11:18.720Z,97814.78
2022-08-22T12:14:05.165Z,97819.56
2022-08-22T12:16:41.036Z,97813.16
2022-08-22T12:19:19.114Z,97807.09
2022-08-22T12:22:12.731Z,97810.94
2022-08-22T12:25:02.691Z,97803.69
2022-08-22T12:27:55.166Z,97806.88
2022-08-22T12:30:31.503Z,97806.34
2022-08-22T12:33:29.177Z,97803.25
2022-08-22T12:36:31.340Z,97804.78
2022-08-22T12:39:32.731Z,97807.19
2022-08-22T12:42:18.788Z,97798.94
2022-08-22T12:45:00.439Z,97800.34
2022-08-22T12:47:37.965Z,97796.66
2022-08-22T12:50:19.955Z,97790.16
2022-08-22T12:53:06.124Z,97789.56
2022-08-22T12:55:42.109Z,97789.09
2022-08-22T12:58:18.170Z,97793.72
2022-08-22T13:00:47.382Z,97790.47
2022-08-22T13:03:25.515Z,97785.97
2022-08-22T13:05:59.766Z,97781.06
2022-08-22T13:08:30.901Z,97782.34
2022-08-22T13:11:02.351Z,97786.56
2022-08-22T13:13:36.978Z,97781.25
2022-08-22T13:16:08.101Z,97783.03
2022-08-22T13:18:44.733Z,97783.97
2022-08-22T13:21:16.319Z,97782.22
2022-08-22T13:23:48.579Z,97784.53
2022-08-22T13:26:31.595Z,97778.03
2022-08-22T13:29:24.593Z,97782.41
2022-08-22T13:31:55.149Z,97777.25
2022-08-22T13:34:38.464Z,97782.66
2022-08-22T13:37:08.212Z,97784.50
2022-08-22T13:39:41.128Z,97779.66
2022-08-22T13:42:27.907Z,97774.25
2022-08-22T13:45:02.686Z,97770.34
2022-08-22T13:47:32.418Z,97773.63
2022-08-22T13:50:09.033Z,97761.34
2022-08-22T13:52:40.376Z,97770.91
2022-08-22T13:55:13.706Z,97770.53
2022-08-22T13:57:43.630Z,97769.28
2022-08-22T14:00:56.624Z,97762.09
2022-08-22T14:03:28.244Z,97768.00
2022-08-22T14:06:36.787Z,97765.53
2022-08-22T14:08:47.339Z,97765.97
2022-08-22T14:11:24.464Z,97756.13
2022-08-22T14:13:56.548Z,97758.97
2022-08-22T14:16:28.432Z,97755.44
2022-08-22T14:18:59.944Z,97756.63
2022-08-22T14:21:40.168Z,97760.22
2022-08-22T14:24:14.241Z,97754.69
2022-08-22T14:26:51.813Z,97753.50
2022-08-22T14:29:21.146Z,97747.16
2022-08-22T14:32:04.872Z,97754.66
2022-08-22T14:34:38.740Z,97754.22
2022-08-22T14:37:13.589Z,97748.22
2022-08-22T14:39:45.521Z,97748.66
2022-08-22T14:42:17.557Z,97750.59
2022-08-22T14:44:55.899Z,97737.84
2022-08-22T14:47:54.273Z,97745.00
2022-08-22T14:50:36.184Z,97742.16
2022-08-22T14:53:08.752Z,97735.91
2022-08-22T14:55:39.883Z,97743.06
2022-08-22T14:58:16.095Z,97735.94
2022-08-22T15:00:47.281Z,97731.56
2022-08-22T15:03:25.605Z,97729.97
2022-08-22T15:05:55.645Z,97731.53
2022-08-22T15:08:29.408Z,97734.72
2022-08-22T15:11:22.404Z,97735.94
2022-08-22T15:13:58.151Z,97735.91
2022-08-22T15:16:33.859Z,97723.16
2022-08-22T15:19:03.010Z,97723.97
2022-08-22T15:21:33.212Z,97723.94
2022-08-22T15:24:14.069Z,97727.44
2022-08-22T15:26:50.221Z,97717.91
2022-08-22T15:29:21.558Z,97729.81
2022-08-22T15:31:54.173Z,97716.69
2022-08-22T15:34:25.622Z,97719.06
2022-08-22T15:37:14.314Z,97717.47
2022-08-22T15:40:08.580Z,97710.31
2022-08-22T15:42:42.633Z,97714.28
2022-08-22T15:45:21.477Z,97705.56
2022-08-22T15:47:53.463Z,97703.94
2022-08-22T15:50:35.177Z,97701.47
2022-08-22T15:53:12.652Z,97703.03
2022-08-22T15:56:15.565Z,97704.97
2022-08-22T15:58:48.946Z,97706.38
2022-08-22T16:01:23.698Z,97703.84
2022-08-22T16:03:57.390Z,97704.69
2022-08-22T16:06:43.937Z,97697.31
2022-08-22T16:09:31.344Z,97693.53
2022-08-22T16:12:04.172Z,97697.94
2022-08-22T16:14:49.869Z,97691.59
2022-08-22T16:17:46.499Z,97696.41
2022-08-22T16:20:53.961Z,97688.53
2022-08-22T16:23:22.900Z,97697.22
2022-08-22T16:26:23.969Z,97693.28
2022-08-22T16:28:58.799Z,97700.00
2022-08-22T16:31:30.220Z,97699.63
2022-08-22T16:34:00.199Z,97694.06
2022-08-22T16:36:45.421Z,97692.41
2022-08-22T16:39:29.946Z,97696.34
2022-08-22T16:42:25.856Z,97696.56
2022-08-22T16:44:59.804Z,97698.50
2022-08-22T16:47:41.571Z,97694.13
2022-08-22T16:50:27.069Z,97702.78
2022-08-22T16:52:58.543Z,97700.00
2022-08-22T16:55:50.336Z,97699.13
2022-08-22T16:58:56.539Z,97700.53
2022-08-22T17:01:44.754Z,97705.91
2022-08-22T17:04:21.142Z,97705.44
2022-08-22T17:07:04.169Z,97706.13
2022-08-22T17:09:45.597Z,97700.34
2022-08-22T17:12:21.700Z,97699.50
2022-08-22T17:14:57.289Z,97703.69
2022-08-22T17:17:34.711Z,97701.88
2022-08-22T17:20:12.961Z,97710.00
2022-08-22T17:22:50.660Z,97711.38
2022-08-22T17:25:22.897Z,97713.72
2022-08-22T17:27:54.712Z,97714.00
2022-08-22T17:30:27.326Z,97715.03
2022-08-22T17:33:12.572Z,97715.69
2022-08-22T17:35:51.349Z,97721.47
2022-08-22T17:38:27.181Z,97717.81
2022-08-22T17:41:00.975Z,97725.91
2022-08-22T17:43:44.633Z,97728.88
2022-08-22T17:46:29.180Z,97726.34
2022-08-22T17:49:09.140Z,97734.91
2022-08-22T17:51:45.180Z,97731.59
2022-08-22T17:54:16.616Z,97740.91
2022-08-22T17:56:47.018Z,97743.06
2022-08-22T17:59:21.676Z,97735.00
2022-08-22T18:01:52.313Z,97733.59
2022-08-22T18:04:26.716Z,97739.72
2022-08-22T18:06:59.270Z,97736.72
2022-08-22T18:09:32.309Z,97746.00
2022-08-22T18:12:03.734Z,97750.91
2022-08-22T18:14:34.967Z,97746.41
2022-08-22T18:17:14.968Z,97749.72
2022-08-22T18:19:53.093Z,97752.66
2022-08-22T18:22:24.416Z,97756.75
2022-08-22T18:24:55.683Z,97756.78
2022-08-22T18:27:34.292Z,97760.53
2022-08-22T18:30:08.017Z,97770.19
2022-08-22T18:32:40.053Z,97764.50
2022-08-22T18:35:18.480Z,97768.31
2022-08-22T18:37:56.107Z,97766.19
2022-08-22T18:40:31.377Z,97765.66
2022-08-22T18:43:08.640Z,97769.00
2022-08-22T18:46:03.886Z,97771.91
2022-08-22T18:48:54.477Z,97769.06
2022-08-22T18:51:30.655Z,97765.63
2022-08-22T18:54:03.846Z,97771.72
2022-08-22T18:56:54.150Z,97784.38
2022-08-22T18:59:46.779Z,97777.66
2022-08-22T19:02:55.703Z,97785.03
2022-08-22T19:06:05.250Z,97785.94
2022-08-22T19:08:53.587Z,97791.13
2022-08-22T19:11:35.104Z,97783.88
2022-08-22T19:14:16.417Z,97792.03
2022-08-22T19:17:12.864Z,97794.78
2022-08-22T19:20:08.365Z,97793.16
2022-08-22T19:22:38.023Z,97799.25
2022-08-22T19:25:15.704Z,97797.97
2022-08-22T19:27:45.660Z,97807.84
2022-08-22T19:30:43.768Z,97809.53
2022-08-22T19:33:13.792Z,97809.53
2022-08-22T19:35:47.397Z,97817.22
2022-08-22T19:38:53.711Z,97814.13
2022-08-22T19:41:46.239Z,97820.22
2022-08-22T19:44:33.444Z,97820.91
2022-08-22T19:47:07.281Z,97819.75
2022-08-22T19:49:38.364Z,97822.38
2022-08-22T19:52:13.898Z,97815.16
2022-08-22T19:54:48.435Z,97820.19
2022-08-22T19:57:22.102Z,97813.75
2022-08-22T20:00:01.505Z,97815.09
2022-08-22T20:02:37.030Z,97821.59
2022-08-22T20:05:27.727Z,97822.63
2022-08-22T20:08:07.883Z,97808.84
2022-08-22T20:10:49.745Z,97815.22
2022-08-22T20:13:32.802Z,97818.66
2022-08-22T20:16:23.882Z,97822.59
2022-08-22T20:19:06.356Z,97818.81
2022-08-22T20:21:58.896Z,97817.09
2022-08-22T20:24:41.064Z,97821.66
2022-08-22T20:27:16.990Z,97814.41
2022-08-22T20:29:57.381Z,97820.38
2022-08-22T20:32:26.095Z,97816.22
2022-08-22T20:35:19.040Z,97823.03
2022-08-22T20:38:06.969Z,97826.28
2022-08-22T20:40:53.533Z,97832.78
2022-08-22T20:43:32.350Z,97842.69
2022-08-22T20:46:19.053Z,97833.69
2022-08-22T20:48:55.253Z,97841.31
2022-08-22T20:51:25.188Z,97835.69
2022-08-22T20:54:01.838Z,97841.84
2022-08-22T20:56:51.646Z,97837.22
2022-08-22T20:59:38.538Z,97843.84
2022-08-22T21:02:15.682Z,97836.16
2022-08-22T21:05:00.194Z,97843.56
2022-08-22T21:07:35.566Z,97843.09
2022-08-22T21:10:27.354Z,97841.00
2022-08-22T21:13:12.834Z,97842.66
2022-08-22T21:15:51.069Z,97848.66
2022-08-22T21:18:32.472Z,97853.63
2022-08-22T21:21:17.030Z,97854.28
2022-08-22T21:23:57.407Z,97854.81
2022-08-22T21:26:31.999Z,97851.59
2022-08-22T21:29:08.791Z,97853.38
2022-08-22T21:31:49.812Z,97853.41
2022-08-22T21:34:29.396Z,97850.19
2022-08-22T21:37:00.274Z,97847.13
2022-08-22T21:42:13.786Z,97854.41
2022-08-22T21:44:43.217Z,97857.47
2022-08-22T21:47:32.512Z,97861.34
2022-08-22T21:50:12.197Z,97861.19
2022-08-22T21:52:41.957Z,97865.72
2022-08-22T21:55:32.794Z,97863.63
2022-08-22T21:58:12.914Z,97859.94
2022-08-22T22:01:13.451Z,97866.38
2022-08-22T22:03:44.098Z,97859.94
2022-08-22T22:06:13.768Z,97863.34
2022-08-22T22:08:41.661Z,97864.28
2022-08-22T22:11:17.483Z,97874.44
2022-08-22T22:13:45.745Z,97871.22
2022-08-22T22:16:21.040Z,97873.00
2022-08-22T22:18:48.928Z,97865.75
2022-08-22T22:21:26.893Z,97874.94
2022-08-22T22:23:58.480Z,97869.78
2022-08-22T22:26:32.969Z,97873.63
2022-08-22T22:29:00.909Z,97878.47
2022-08-22T22:31:34.710Z,97870.72
2022-08-22T22:34:02.596Z,97880.56
2022-08-22T22:36:37.735Z,97875.88
2022-08-22T22:39:06.266Z,97886.34
2022-08-22T22:41:36.026Z,97875.22
2022-08-22T22:44:05.801Z,97879.41
2022-08-22T22:46:33.659Z,97885.53
2022-08-22T22:49:01.574Z,97889.38
2022-08-22T22:51:36.938Z,97886.16
2022-08-22T22:54:05.055Z,97888.75
2022-08-22T22:56:38.623Z,97888.28
2022-08-22T22:59:13.656Z,97891.16
2022-08-22T23:02:00.397Z,97885.69
2022-08-22T23:04:28.486Z,97893.91
2022-08-22T23:07:06.092Z,97892.78
2022-08-22T23:09:44.708Z,97899.06
2022-08-22T23:12:23.820Z,97899.38
2022-08-22T23:14:51.817Z,97894.72
2022-08-22T23:17:26.637Z,97895.50
2022-08-22T23:19:54.505Z,97896.31
2022-08-22T23:22:30.262Z,97901.78
2022-08-22T23:24:58.113Z,97903.56
2022-08-22T23:27:33.370Z,97906.13
2022-08-22T23:30:02.248Z,97906.63
2022-08-22T23:32:36.566Z,97914.81
2022-08-22T23:35:04.805Z,97915.31
2022-08-22T23:37:40.811Z,97921.09
2022-08-22T23:40:10.507Z,97916.25
2022-08-22T23:42:43.952Z,97918.84
2022-08-22T23:45:12.072Z,97922.84
2022-08-22T23:47:40.021Z,97920.44
2022-08-22T23:50:12.288Z,97925.75
2022-08-22T23:52:41.566Z,97920.09
2022-08-22T23:55:16.859Z,97921.50
2022-08-22T23:57:44.711Z,97909.09
